createdAt,value
2023-02-01T00:00:15.643Z,17
2023-02-01T00:05:15.584Z,14
2023-02-01T00:10:15.540Z,19
2023-02-01T00:15:15.632Z,17
2023-02-01T00:20:15.689Z,12
2023-02-01T00:25:15.684Z,15
2023-02-01T00:30:15.892Z,16
2023-02-01T00:35:15.665Z,15
2023-02-01T00:40:15.692Z,21
2023-02-01T00:45:15.731Z,17
2023-02-01T00:50:15.790Z,12
2023-02-01T00:55:15.777Z,18
2023-02-01T01:00:15.705Z,16
2023-02-01T01:05:15.801Z,16
2023-02-01T01:10:15.763Z,14
2023-02-01T01:15:15.711Z,14
2023-02-01T01:20:15.879Z,15
2023-02-01T01:25:15.810Z,19
2023-02-01T01:30:15.868Z,15
2023-02-01T01:35:15.798Z,18
2023-02-01T01:40:15.877Z,15
2023-02-01T01:45:15.805Z,15
2023-02-01T01:50:16.048Z,17
2023-02-01T01:55:15.714Z,16
2023-02-01T02:00:15.863Z,18
2023-02-01T02:05:15.910Z,17
2023-02-01T02:10:15.950Z,20
2023-02-01T02:15:15.863Z,15
2023-02-01T02:20:15.941Z,13
2023-02-01T02:25:16.915Z,12
2023-02-01T02:30:16.899Z,16
2023-02-01T02:35:17.021Z,17
2023-02-01T02:40:16.928Z,21
2023-02-01T02:45:16.966Z,18
2023-02-01T02:50:17.027Z,20
2023-02-01T02:55:17.073Z,18
2023-02-01T03:00:17.142Z,18
2023-02-01T03:05:16.998Z,18
2023-02-01T03:10:16.995Z,17
2023-02-01T03:15:17.022Z,19
2023-02-01T03:20:17.083Z,18
2023-02-01T03:25:17.215Z,18
2023-02-01T03:30:17.083Z,19
2023-02-01T03:35:17.036Z,17
2023-02-01T03:40:17.029Z,17
2023-02-01T03:45:17.152Z,18
2023-02-01T03:50:17.107Z,19
2023-02-01T03:55:17.035Z,16
2023-02-01T04:00:17.278Z,18
2023-02-01T04:05:17.112Z,20
2023-02-01T04:10:19.651Z,18
2023-02-01T04:15:17.217Z,14
2023-02-01T04:20:17.168Z,17
2023-02-01T04:25:17.192Z,13
2023-02-01T04:30:17.175Z,16
2023-02-01T04:35:17.179Z,16
2023-02-01T04:40:17.343Z,15
2023-02-01T04:45:17.297Z,13
2023-02-01T04:50:17.396Z,16
2023-02-01T04:55:17.291Z,14
2023-02-01T05:00:16.408Z,18
2023-02-01T05:05:16.355Z,14
2023-02-01T05:10:16.307Z,15
2023-02-01T05:15:16.379Z,15
2023-02-01T05:20:16.327Z,14
2023-02-01T05:25:16.299Z,13
2023-02-01T05:30:16.375Z,15
2023-02-01T05:35:16.330Z,13
2023-02-01T05:40:16.517Z,16
2023-02-01T05:45:16.400Z,14
2023-02-01T05:50:16.448Z,12
2023-02-01T05:55:16.642Z,13
2023-02-01T06:00:16.517Z,13
2023-02-01T06:05:16.413Z,13
2023-02-01T06:10:16.392Z,13
2023-02-01T06:15:16.428Z,16
2023-02-01T06:20:16.887Z,13
2023-02-01T06:25:15.613Z,11
2023-02-01T06:30:15.532Z,13
2023-02-01T06:35:15.607Z,11
2023-02-01T06:40:15.587Z,11
2023-02-01T06:45:15.538Z,13
2023-02-01T06:50:15.497Z,13
2023-02-01T06:55:15.598Z,10
2023-02-01T07:00:15.591Z,14
2023-02-01T07:05:15.588Z,9
2023-02-01T07:10:15.559Z,13
2023-02-01T07:15:15.570Z,11
2023-02-01T07:20:15.589Z,13
2023-02-01T07:25:15.523Z,10
2023-02-01T07:30:15.569Z,10
2023-02-01T07:35:15.585Z,10
2023-02-01T07:40:15.670Z,10
2023-02-01T07:45:21.234Z,12
2023-02-01T07:50:15.591Z,10
2023-02-01T07:55:15.695Z,10
2023-02-01T08:00:15.701Z,9
2023-02-01T08:05:15.758Z,10
2023-02-01T08:10:15.669Z,9
2023-02-01T08:15:15.707Z,10
2023-02-01T08:20:15.969Z,7
2023-02-01T08:25:15.728Z,6
2023-02-01T08:30:15.744Z,12
2023-02-01T08:35:15.833Z,11
2023-02-01T08:40:15.851Z,9
2023-02-01T08:45:15.766Z,11
2023-02-01T08:50:15.720Z,11
2023-02-01T08:55:15.808Z,10
2023-02-01T09:00:15.884Z,8
2023-02-01T09:05:15.764Z,8
2023-02-01T09:10:18.907Z,9
2023-02-01T09:15:15.897Z,9
2023-02-01T09:20:15.943Z,7
2023-02-01T09:25:15.924Z,10
2023-02-01T09:30:15.870Z,11
2023-02-01T09:35:15.841Z,9
2023-02-01T09:40:15.865Z,9
2023-02-01T09:45:15.892Z,7
2023-02-01T09:50:15.993Z,9
2023-02-01T09:55:15.967Z,10
2023-02-01T10:00:15.922Z,9
2023-02-01T10:05:15.948Z,7
2023-02-01T10:10:15.997Z,10
2023-02-01T10:15:15.986Z,11
2023-02-01T10:20:16.017Z,11
2023-02-01T10:25:15.967Z,9
2023-02-01T10:30:16.008Z,10
2023-02-01T10:35:16.005Z,10
2023-02-01T10:40:16.012Z,9
2023-02-01T10:45:16.107Z,9
2023-02-01T10:50:16.135Z,8
2023-02-01T10:55:16.125Z,10
2023-02-01T11:00:16.071Z,10
2023-02-01T11:05:16.086Z,9
2023-02-01T11:10:16.279Z,11
2023-02-01T11:15:16.063Z,10
2023-02-01T11:20:16.138Z,11
2023-02-01T11:25:16.143Z,15
2023-02-01T11:30:16.139Z,12
2023-02-01T11:35:16.361Z,17
2023-02-01T11:40:16.111Z,14
2023-02-01T11:45:16.309Z,14
2023-02-01T11:50:16.110Z,13
2023-02-01T11:55:16.109Z,14
2023-02-01T12:00:16.241Z,11
2023-02-01T12:05:16.236Z,12
2023-02-01T12:10:16.266Z,12
2023-02-01T12:15:16.304Z,11
2023-02-01T12:20:16.728Z,13
2023-02-01T12:25:16.243Z,8
2023-02-01T12:30:16.306Z,11
2023-02-01T12:35:16.255Z,10
2023-02-01T12:40:16.283Z,7
2023-02-01T12:45:16.421Z,10
2023-02-01T12:50:16.424Z,10
2023-02-01T12:55:16.380Z,9
2023-02-01T13:00:16.433Z,7
2023-02-01T13:05:16.437Z,8
2023-02-01T13:10:16.352Z,8
2023-02-01T13:15:16.396Z,5
2023-02-01T13:20:16.319Z,8
2023-02-01T13:25:16.481Z,8
2023-02-01T13:30:16.578Z,8
2023-02-01T13:35:17.311Z,9
2023-02-01T13:40:16.554Z,11
2023-02-01T13:45:16.480Z,11
2023-02-01T13:50:16.543Z,16
2023-02-01T13:55:16.330Z,14
2023-02-01T14:00:16.593Z,12
2023-02-01T14:05:16.612Z,11
2023-02-01T14:10:16.681Z,11
2023-02-01T14:15:16.603Z,11
2023-02-01T14:20:16.477Z,14
2023-02-01T14:25:16.492Z,16
2023-02-01T14:30:16.557Z,12
2023-02-01T14:35:16.651Z,15
2023-02-01T14:40:16.559Z,14
2023-02-01T14:45:16.561Z,14
2023-02-01T14:50:16.695Z,14
2023-02-01T14:55:16.536Z,14
2023-02-01T15:00:16.657Z,12
2023-02-01T15:05:16.563Z,14
2023-02-01T15:10:16.691Z,15
2023-02-01T15:15:16.616Z,16
2023-02-01T15:20:17.150Z,13
2023-02-01T15:25:16.627Z,13
2023-02-01T15:30:16.631Z,15
2023-02-01T15:35:16.787Z,15
2023-02-01T15:40:16.771Z,17
2023-02-01T15:45:16.733Z,12
2023-02-01T15:50:16.758Z,13
2023-02-01T15:55:16.762Z,15
2023-02-01T16:00:16.743Z,14
2023-02-01T16:05:16.728Z,17
2023-02-01T16:10:16.670Z,13
2023-02-01T16:15:16.775Z,12
2023-02-01T16:20:17.018Z,15
2023-02-01T16:25:16.900Z,12
2023-02-01T16:30:16.836Z,14
2023-02-01T16:35:16.772Z,12
2023-02-01T16:40:16.782Z,12
2023-02-01T16:45:16.941Z,11
2023-02-01T16:50:22.764Z,12
2023-02-01T16:55:16.906Z,15
2023-02-01T17:00:25.530Z,13
2023-02-01T17:05:16.951Z,11
2023-02-01T17:10:21.382Z,10
2023-02-01T17:15:16.940Z,12
2023-02-01T17:20:16.857Z,12
2023-02-01T17:25:16.977Z,12
2023-02-01T17:30:17.075Z,12
2023-02-01T17:35:16.994Z,14
2023-02-01T17:40:17.018Z,13
2023-02-01T17:45:16.927Z,12
2023-02-01T17:50:16.934Z,8
2023-02-01T17:55:16.827Z,11
2023-02-01T18:00:16.983Z,9
2023-02-01T18:05:17.021Z,9
2023-02-01T18:10:17.292Z,10
2023-02-01T18:15:17.171Z,10
2023-02-01T18:20:17.024Z,11
2023-02-01T18:25:16.994Z,9
2023-02-01T18:30:16.986Z,12
2023-02-01T18:35:17.390Z,11
2023-02-01T18:40:17.269Z,11
2023-02-01T18:45:17.179Z,11
2023-02-01T18:50:17.018Z,8
2023-02-01T18:55:17.132Z,10
2023-02-01T19:00:17.210Z,7
2023-02-01T19:05:17.306Z,8
2023-02-01T19:10:17.262Z,8
2023-02-01T19:15:17.159Z,5
2023-02-01T19:20:17.193Z,6
2023-02-01T19:25:17.191Z,6
2023-02-01T19:30:17.206Z,10
2023-02-01T19:35:17.220Z,7
2023-02-01T19:40:17.331Z,7
2023-02-01T19:45:17.212Z,6
2023-02-01T19:50:17.242Z,6
2023-02-01T19:55:17.629Z,8
2023-02-01T20:00:19.546Z,6
2023-02-01T20:05:16.542Z,9
2023-02-01T20:10:16.408Z,9
2023-02-01T20:15:16.432Z,6
2023-02-01T20:20:16.481Z,5
2023-02-01T20:25:16.461Z,5
2023-02-01T20:30:17.350Z,6
2023-02-01T20:35:17.409Z,4
2023-02-01T20:40:17.327Z,7
2023-02-01T20:45:17.402Z,5
2023-02-01T20:50:17.475Z,4
2023-02-01T20:55:17.547Z,5
2023-02-01T21:00:17.383Z,4
2023-02-01T21:05:15.383Z,4
2023-02-01T21:10:15.498Z,4
2023-02-01T21:15:15.465Z,4
2023-02-01T21:20:15.448Z,4
2023-02-01T21:25:15.436Z,2
2023-02-01T21:30:15.539Z,2
2023-02-01T21:35:15.627Z,2
2023-02-01T21:40:15.526Z,5
2023-02-01T21:45:15.526Z,4
2023-02-01T21:50:15.514Z,3
2023-02-01T21:55:15.528Z,3
2023-02-01T22:00:15.697Z,3
2023-02-01T22:05:15.626Z,3
2023-02-01T22:10:15.609Z,3
2023-02-01T22:15:15.647Z,3
2023-02-01T22:20:15.613Z,3
2023-02-01T22:25:15.667Z,4
2023-02-01T22:30:15.761Z,4
2023-02-01T22:35:17.331Z,3
2023-02-01T22:40:16.611Z,5
2023-02-01T22:45:16.686Z,4
2023-02-01T22:50:16.670Z,4
2023-02-01T22:55:16.667Z,4
2023-02-01T23:00:16.739Z,3
2023-02-01T23:05:16.674Z,3
2023-02-01T23:10:16.719Z,3
2023-02-01T23:15:16.678Z,4
2023-02-01T23:20:16.814Z,4
2023-02-01T23:25:16.668Z,3
2023-02-01T23:30:16.959Z,4
2023-02-01T23:35:16.836Z,4
2023-02-01T23:40:16.739Z,5
2023-02-01T23:45:16.744Z,4
2023-02-01T23:50:16.857Z,4
2023-02-01T23:55:16.810Z,3
